Time;durP1;ratioP1;P1;durP2;ratioP2;P2;SDS_P1;SDS_P2;PMS_P1;PMS_P2;Temp;Humidity;BMP_temperature;BMP_pressure;BME280_temperature;BME280_humidity;BME280_pressure;Samples;Min_cycle;Max_cycle;Signal;HPM_P1;HPM_P2
2022/01/16 00:00:19;;;;;;;27.67;17.90;;;2.10;99.90;;;;;;5095132;28;20459;-52
2022/01/16 00:05:33;;;;;;;26.27;16.60;;;2.00;99.90;;;;;;5094961;28;20469;-52
2022/01/16 00:08:00;;;;;;;26.10;16.40;;;2.00;99.90;;;;;;5095087;28;20447;-52
2022/01/16 00:10:27;;;;;;;22.30;16.70;;;2.00;99.90;;;;;;5094831;28;20459;-51
2022/01/16 00:12:59;;;;;;;23.77;14.40;;;2.10;99.90;;;;;;5094785;28;20448;-50
2022/01/16 00:15:27;;;;;;;26.50;17.27;;;2.10;99.90;;;;;;5094631;28;20471;-51
2022/01/16 00:17:59;;;;;;;26.90;17.67;;;2.00;99.90;;;;;;5094465;28;20483;-52
2022/01/16 00:20:27;;;;;;;25.30;16.73;;;2.00;99.90;;;;;;5094302;28;20476;-51
2022/01/16 00:22:57;;;;;;;29.67;15.97;;;1.90;99.90;;;;;;5094496;28;20538;-51
2022/01/16 00:25:24;;;;;;;23.00;15.17;;;1.90;99.90;;;;;;5094810;28;20885;-50
2022/01/16 00:27:52;;;;;;;25.50;15.80;;;2.00;99.90;;;;;;5094638;28;20447;-51
2022/01/16 00:30:19;;;;;;;20.13;13.33;;;2.00;99.90;;;;;;5094493;28;20448;-51
2022/01/16 00:32:47;;;;;;;22.70;14.70;;;1.90;99.90;;;;;;5094612;28;20537;-51
2022/01/16 00:35:15;;;;;;;21.73;15.50;;;1.90;99.90;;;;;;5094351;28;20497;-51
2022/01/16 00:37:42;;;;;;;27.03;17.03;;;1.80;99.90;;;;;;5094171;28;20447;-51
2022/01/16 00:40:12;;;;;;;20.10;15.17;;;1.90;99.90;;;;;;5094353;28;20454;-51
2022/01/16 00:42:40;;;;;;;26.43;16.10;;;1.90;99.90;;;;;;5094213;28;20462;-51
2022/01/16 00:45:08;;;;;;;24.20;15.90;;;1.90;99.90;;;;;;5094234;28;20479;-51
2022/01/16 00:47:35;;;;;;;23.70;15.23;;;1.80;99.90;;;;;;5094162;28;20964;-51
2022/01/16 00:50:02;;;;;;;25.43;17.17;;;1.90;99.90;;;;;;5093888;28;20953;-51
2022/01/16 00:52:29;;;;;;;24.90;17.67;;;1.80;99.90;;;;;;5094110;28;20459;-51
2022/01/16 00:55:02;;;;;;;27.70;17.63;;;1.80;99.90;;;;;;5093916;28;20454;-51
2022/01/16 00:57:31;;;;;;;24.47;15.43;;;1.70;99.90;;;;;;5094322;28;20420;-51
2022/01/16 00:59:58;;;;;;;25.90;18.20;;;1.70;99.90;;;;;;5094028;28;20454;-51
2022/01/16 01:02:26;;;;;;;27.50;16.60;;;1.60;99.90;;;;;;5093800;28;20470;-51
2022/01/16 01:04:53;;;;;;;24.10;17.03;;;1.60;99.90;;;;;;5093949;28;20455;-51
2022/01/16 01:07:20;;;;;;;22.10;16.13;;;1.70;99.90;;;;;;5093461;28;20436;-51
2022/01/16 01:09:47;;;;;;;26.77;17.73;;;1.80;99.90;;;;;;5093799;28;20482;-51
2022/01/16 01:12:26;;;;;;;23.53;16.23;;;1.70;99.90;;;;;;5093448;28;20474;-51
2022/01/16 01:15:06;;;;;;;24.00;17.73;;;1.60;99.90;;;;;;5093483;28;20776;-51
2022/01/16 01:17:37;;;;;;;26.13;18.43;;;1.60;99.90;;;;;;5093734;28;20467;-51
2022/01/16 01:20:06;;;;;;;27.20;18.07;;;1.90;99.90;;;;;;5092265;28;20544;-51
2022/01/16 01:22:33;;;;;;;32.60;17.37;;;2.10;99.90;;;;;;5093542;28;20463;-51
2022/01/16 01:25:00;;;;;;;27.70;18.77;;;2.10;99.90;;;;;;5093634;28;20447;-51
2022/01/16 01:27:31;;;;;;;28.80;18.30;;;2.10;99.90;;;;;;5093184;28;20444;-51
2022/01/16 01:30:03;;;;;;;27.40;18.20;;;2.10;99.90;;;;;;5093479;28;20452;-51
2022/01/16 01:32:32;;;;;;;26.83;17.23;;;2.20;99.90;;;;;;5093516;28;20462;-51
2022/01/16 01:34:59;;;;;;;27.33;18.43;;;2.10;99.90;;;;;;5093118;28;20958;-51
2022/01/16 01:37:26;;;;;;;29.53;19.23;;;2.10;99.90;;;;;;5093261;28;20887;-51
2022/01/16 01:39:53;;;;;;;27.20;18.33;;;2.30;99.90;;;;;;5093117;28;20443;-51
2022/01/16 01:42:21;;;;;;;31.63;19.60;;;2.30;99.90;;;;;;5093259;28;20467;-51
2022/01/16 01:53:03;;;;;;;28.00;18.20;;;2.20;99.90;;;;;;5093074;28;20446;-51
2022/01/16 01:55:30;;;;;;;30.20;18.83;;;1.90;99.90;;;;;;5093001;28;20450;-51
2022/01/16 01:57:57;;;;;;;33.57;19.50;;;1.80;99.90;;;;;;5093112;28;20447;-51
2022/01/16 02:00:25;;;;;;;32.33;18.97;;;1.70;99.90;;;;;;5092720;28;20450;-51
2022/01/16 02:03:13;;;;;;;31.60;18.50;;;1.60;99.90;;;;;;5093071;28;20527;-51
2022/01/16 02:05:42;;;;;;;36.53;19.70;;;1.70;99.90;;;;;;5092903;28;20447;-51
2022/01/16 02:08:10;;;;;;;30.80;18.93;;;1.60;99.90;;;;;;5093119;28;20456;-51
2022/01/16 02:10:38;;;;;;;30.40;20.20;;;1.70;99.90;;;;;;5092550;28;21004;-51
2022/01/16 02:13:09;;;;;;;28.97;18.20;;;1.60;99.90;;;;;;5092970;28;20444;-51
2022/01/16 02:32:29;;;;;;;32.00;18.93;;;2.00;99.90;;;;;;5083683;28;20549;-51
2022/01/16 02:34:55;;;;;;;34.20;19.73;;;1.90;99.90;;;;;;5096964;28;20439;-51
2022/01/16 02:37:24;;;;;;;34.43;20.57;;;1.60;99.90;;;;;;5096484;28;20573;-51
2022/01/16 02:40:00;;;;;;;36.27;20.93;;;1.40;99.90;;;;;;5096440;28;20455;-51
2022/01/16 02:42:29;;;;;;;38.27;20.90;;;1.20;99.90;;;;;;5096637;28;20474;-51
2022/01/16 02:45:03;;;;;;;33.23;20.37;;;1.40;99.90;;;;;;5096735;28;20450;-51
2022/01/16 02:47:31;;;;;;;37.43;20.50;;;1.40;99.90;;;;;;5096651;28;20478;-51
2022/01/16 02:50:01;;;;;;;34.40;21.70;;;1.50;99.90;;;;;;5096503;28;20451;-51
2022/01/16 02:52:28;;;;;;;33.30;20.83;;;1.50;99.90;;;;;;5096186;28;21063;-50
2022/01/16 02:55:00;;;;;;;35.93;20.57;;;1.40;99.90;;;;;;5096324;28;20447;-51
2022/01/16 02:57:28;;;;;;;33.87;21.67;;;1.70;99.90;;;;;;5096349;28;20885;-51
2022/01/16 02:59:57;;;;;;;31.47;19.53;;;1.70;99.90;;;;;;5096340;28;20447;-51
2022/01/16 03:02:26;;;;;;;32.20;21.10;;;1.70;99.90;;;;;;5096030;28;20463;-50
2022/01/16 03:04:53;;;;;;;33.63;20.47;;;1.30;99.90;;;;;;5096307;28;20814;-51
2022/01/16 03:07:22;;;;;;;35.33;20.10;;;1.20;99.90;;;;;;5096169;28;20448;-51
2022/01/16 03:10:17;;;;;;;28.13;19.40;;;1.30;99.90;;;;;;5096258;28;20447;-51
2022/01/16 03:12:45;;;;;;;28.23;19.33;;;1.30;99.90;;;;;;5095919;28;20431;-51
2022/01/16 03:15:15;;;;;;;29.27;18.07;;;1.40;99.90;;;;;;5095914;28;20473;-51
2022/01/16 03:21:53;;;;;;;28.00;18.17;;;1.40;99.90;;;;;;5095779;28;20495;-51
2022/01/16 03:23:23;;;;;;;32.27;18.60;;;1.50;99.90;;;;;;5074334;28;20424;-50
2022/01/16 03:25:56;;;;;;;30.70;17.87;;;1.50;99.90;;;;;;5095689;28;20475;-49
2022/01/16 03:28:26;;;;;;;32.37;19.57;;;1.50;99.90;;;;;;5095322;28;20451;-50
2022/01/16 03:30:54;;;;;;;30.27;19.07;;;1.60;99.90;;;;;;5095682;28;20477;-50
2022/01/16 03:33:22;;;;;;;28.07;19.33;;;1.50;99.90;;;;;;5095846;28;20440;-50
2022/01/16 03:35:49;;;;;;;29.60;19.60;;;1.50;99.90;;;;;;5094486;28;20477;-50
2022/01/16 03:38:16;;;;;;;28.67;18.80;;;1.40;99.90;;;;;;5095619;28;20444;-50
2022/01/16 03:40:44;;;;;;;32.43;21.23;;;1.40;99.90;;;;;;5095534;28;20467;-50
2022/01/16 03:43:14;;;;;;;33.10;18.63;;;1.50;99.90;;;;;;5095088;28;20447;-50
2022/01/16 03:45:45;;;;;;;30.57;20.37;;;1.50;99.90;;;;;;5095791;28;20443;-50
2022/01/16 03:48:13;;;;;;;31.47;19.37;;;1.40;99.90;;;;;;5095162;28;20478;-50
2022/01/16 03:50:40;;;;;;;34.13;22.47;;;1.40;99.90;;;;;;5094897;28;20954;-50
2022/01/16 03:53:07;;;;;;;31.23;20.17;;;1.50;99.90;;;;;;5095284;28;20448;-50
2022/01/16 03:55:35;;;;;;;28.67;17.50;;;1.50;99.90;;;;;;5095308;28;20446;-50
2022/01/16 03:58:03;;;;;;;29.83;18.10;;;1.40;99.90;;;;;;5095368;28;20533;-50
2022/01/16 04:00:31;;;;;;;27.60;18.10;;;1.50;99.90;;;;;;5095135;28;20474;-50
2022/01/16 04:02:59;;;;;;;31.40;18.70;;;1.50;99.90;;;;;;5095082;28;20447;-50
2022/01/16 04:05:26;;;;;;;33.40;18.03;;;1.50;99.90;;;;;;5095061;28;20444;-50
2022/01/16 04:07:53;;;;;;;27.20;17.27;;;1.50;99.90;;;;;;5094864;28;20546;-50
2022/01/16 04:10:21;;;;;;;27.63;19.47;;;1.50;99.90;;;;;;5094522;28;20910;-50
2022/01/16 04:12:49;;;;;;;29.97;19.03;;;1.60;99.90;;;;;;5095201;28;20530;-50
2022/01/16 04:15:34;;;;;;;32.47;19.20;;;1.60;99.90;;;;;;5094763;28;20546;-50
2022/01/16 04:18:06;;;;;;;32.17;19.30;;;1.80;99.90;;;;;;5094540;28;20536;-50
2022/01/16 04:20:34;;;;;;;27.57;17.60;;;1.70;99.90;;;;;;5094386;28;20483;-50
2022/01/16 04:23:02;;;;;;;31.63;20.07;;;1.30;99.90;;;;;;5094955;28;20447;-50
2022/01/16 04:25:29;;;;;;;35.40;20.97;;;1.20;99.90;;;;;;5094590;28;20447;-50
2022/01/16 04:27:56;;;;;;;30.17;18.37;;;1.10;99.90;;;;;;5094383;28;20439;-50
2022/01/16 04:30:24;;;;;;;27.43;21.00;;;1.00;99.90;;;;;;5094783;28;20447;-50
2022/01/16 04:32:51;;;;;;;27.90;19.50;;;1.20;99.90;;;;;;5094535;28;20451;-50
2022/01/16 04:35:20;;;;;;;27.27;18.60;;;1.30;99.90;;;;;;5094153;28;20475;-50
2022/01/16 04:37:47;;;;;;;27.37;17.47;;;1.20;99.90;;;;;;5094405;28;20482;-50
2022/01/16 04:40:16;;;;;;;29.03;17.60;;;1.20;99.90;;;;;;5094156;28;20443;-50
2022/01/16 04:45:27;;;;;;;27.37;18.00;;;1.30;99.90;;;;;;5094079;28;20962;-50
2022/01/16 04:47:55;;;;;;;27.27;18.17;;;1.20;99.90;;;;;;5093094;28;20452;-50
2022/01/16 04:50:25;;;;;;;26.37;16.10;;;1.20;99.90;;;;;;5094298;28;20443;-50
2022/01/16 04:52:53;;;;;;;27.00;18.17;;;1.40;99.90;;;;;;5094400;28;20455;-51
2022/01/16 04:55:23;;;;;;;26.77;16.27;;;1.40;99.90;;;;;;5094101;28;20462;-51
2022/01/16 04:57:51;;;;;;;29.50;19.27;;;1.30;99.90;;;;;;5094076;28;20598;-51
2022/01/16 05:00:19;;;;;;;23.17;15.60;;;1.20;99.90;;;;;;5093968;28;20450;-51
2022/01/16 05:02:46;;;;;;;24.47;17.90;;;1.20;99.90;;;;;;5093885;28;20444;-51
2022/01/16 05:05:13;;;;;;;20.47;15.90;;;1.10;99.90;;;;;;5094138;28;20540;-51
2022/01/16 05:07:42;;;;;;;23.13;17.60;;;0.80;99.90;;;;;;5093591;28;20448;-51
2022/01/16 05:10:35;;;;;;;27.60;18.40;;;0.70;99.90;;;;;;5131291;27;20579;-51
2022/01/16 05:13:27;;;;;;;25.80;17.47;;;0.80;99.90;;;;;;5110650;28;20469;-50
2022/01/16 05:18:40;;;;;;;22.33;16.70;;;0.90;99.90;;;;;;5110258;28;20462;-50
2022/01/16 05:21:08;;;;;;;19.10;15.13;;;0.90;99.90;;;;;;5110148;28;20473;-50
2022/01/16 05:23:35;;;;;;;27.23;17.77;;;1.10;99.90;;;;;;5110557;28;20447;-50
2022/01/16 05:26:05;;;;;;;25.70;17.23;;;1.00;99.90;;;;;;5110107;28;20455;-50
2022/01/16 05:28:32;;;;;;;26.27;17.50;;;0.90;99.90;;;;;;5110024;28;20447;-52
2022/01/16 05:31:00;;;;;;;24.83;16.97;;;0.80;99.90;;;;;;5110289;28;20774;-49
2022/01/16 05:33:27;;;;;;;27.33;18.10;;;0.90;99.90;;;;;;5110048;28;20450;-50
2022/01/16 05:35:54;;;;;;;25.37;18.43;;;0.90;99.90;;;;;;5110164;28;20451;-50
2022/01/16 05:38:21;;;;;;;26.80;18.03;;;0.90;99.90;;;;;;5109781;28;20450;-49
2022/01/16 05:40:48;;;;;;;20.90;14.57;;;0.90;99.90;;;;;;5110243;28;20469;-50
2022/01/16 05:43:17;;;;;;;25.97;17.60;;;1.00;99.90;;;;;;5110018;28;20443;-50
2022/01/16 05:45:44;;;;;;;24.10;18.80;;;0.80;99.90;;;;;;5110054;28;20442;-52
2022/01/16 05:48:11;;;;;;;28.43;17.10;;;0.80;99.90;;;;;;5109818;28;20447;-50
2022/01/16 05:50:39;;;;;;;27.27;17.77;;;0.70;99.90;;;;;;5109810;28;20497;-50
2022/01/16 05:53:06;;;;;;;24.30;16.37;;;0.70;99.90;;;;;;5109692;28;20442;-50
2022/01/16 05:55:36;;;;;;;27.60;17.73;;;0.70;99.90;;;;;;5110045;28;20457;-50
2022/01/16 05:58:03;;;;;;;25.63;18.07;;;0.70;99.90;;;;;;5109561;28;20469;-50
2022/01/16 06:00:32;;;;;;;23.40;17.53;;;0.70;99.90;;;;;;5109801;28;20497;-50
2022/01/16 06:03:00;;;;;;;20.33;15.27;;;0.60;99.90;;;;;;5110032;28;20446;-51
2022/01/16 06:05:27;;;;;;;25.17;17.27;;;0.60;99.90;;;;;;5109722;28;20447;-51
2022/01/16 06:07:58;;;;;;;22.60;16.10;;;0.60;99.90;;;;;;5109531;28;20538;-51
2022/01/16 06:10:25;;;;;;;28.80;17.67;;;0.50;99.90;;;;;;5109156;28;20493;-51
2022/01/16 06:12:53;;;;;;;20.73;16.70;;;0.50;99.90;;;;;;5109709;28;20618;-51
2022/01/16 06:15:21;;;;;;;23.87;16.67;;;0.50;99.90;;;;;;5109170;28;20458;-51
2022/01/16 06:17:49;;;;;;;21.17;15.00;;;0.50;99.90;;;;;;5109342;28;20442;-51
2022/01/16 06:20:17;;;;;;;24.87;17.47;;;0.40;99.90;;;;;;5104908;28;20483;-51
2022/01/16 06:22:45;;;;;;;21.73;16.77;;;0.40;99.90;;;;;;5095357;28;20808;-51
2022/01/16 06:25:14;;;;;;;26.73;16.37;;;0.40;99.90;;;;;;5095398;28;20455;-51
2022/01/16 06:27:42;;;;;;;22.37;16.33;;;0.20;99.90;;;;;;5095795;28;20530;-51
2022/01/16 06:30:11;;;;;;;21.77;16.70;;;0.30;99.90;;;;;;5095272;28;20440;-51
2022/01/16 06:32:39;;;;;;;21.03;16.20;;;0.20;99.90;;;;;;5095533;28;20443;-51
2022/01/16 06:35:09;;;;;;;20.63;14.90;;;0.20;99.90;;;;;;5095328;28;20584;-51
2022/01/16 06:37:37;;;;;;;21.50;16.07;;;0.20;99.90;;;;;;5095332;28;20443;-51
2022/01/16 06:40:05;;;;;;;23.00;18.50;;;0.40;99.90;;;;;;5095516;28;20483;-51
2022/01/16 06:42:32;;;;;;;22.50;16.43;;;0.60;99.90;;;;;;5095055;28;20467;-51
2022/01/16 06:44:59;;;;;;;21.90;16.87;;;0.60;99.90;;;;;;5095209;28;20555;-51
2022/01/16 06:47:26;;;;;;;22.43;16.40;;;0.50;99.90;;;;;;5094985;28;20455;-51
2022/01/16 06:49:54;;;;;;;18.87;14.30;;;0.50;99.90;;;;;;5095275;28;20439;-51
2022/01/16 06:52:22;;;;;;;22.33;14.47;;;0.50;99.90;;;;;;5095023;28;20510;-51
2022/01/16 06:54:49;;;;;;;19.40;15.30;;;0.50;99.90;;;;;;5095074;28;20593;-51
2022/01/16 06:57:16;;;;;;;22.10;15.97;;;0.50;99.90;;;;;;5095112;28;20583;-51
2022/01/16 06:59:45;;;;;;;22.77;17.60;;;0.50;99.90;;;;;;5095399;28;20480;-51
2022/01/16 07:02:13;;;;;;;28.70;17.53;;;0.60;99.90;;;;;;5094645;28;21045;-51
2022/01/16 07:04:40;;;;;;;23.40;17.00;;;0.60;99.90;;;;;;5094889;28;20546;-51
2022/01/16 07:07:07;;;;;;;25.27;16.90;;;0.60;99.90;;;;;;5095134;28;20787;-51
2022/01/16 07:09:36;;;;;;;20.90;15.37;;;0.50;99.90;;;;;;5094311;28;20479;-51
2022/01/16 07:12:03;;;;;;;24.30;17.20;;;0.50;99.90;;;;;;5094470;28;20970;-51
2022/01/16 07:14:30;;;;;;;23.37;15.70;;;0.40;99.90;;;;;;5094982;28;20786;-51
2022/01/16 07:16:57;;;;;;;21.97;16.63;;;0.40;99.90;;;;;;5094799;28;20821;-51
2022/01/16 07:19:25;;;;;;;21.43;17.50;;;0.50;99.90;;;;;;5094620;28;20807;-51
2022/01/16 07:21:53;;;;;;;24.07;16.30;;;0.60;99.90;;;;;;5094699;28;20464;-51
2022/01/16 07:24:20;;;;;;;20.70;15.10;;;0.80;99.90;;;;;;5094517;28;20444;-51
2022/01/16 07:26:49;;;;;;;20.80;17.10;;;0.90;99.90;;;;;;5094612;28;20534;-51
2022/01/16 07:29:16;;;;;;;34.43;16.50;;;0.90;99.90;;;;;;5094177;28;20530;-51
2022/01/16 07:31:43;;;;;;;20.90;15.07;;;1.00;99.90;;;;;;5093916;28;20469;-51
2022/01/16 07:34:11;;;;;;;21.90;16.63;;;1.00;99.90;;;;;;5093891;28;20453;-51
2022/01/16 07:36:39;;;;;;;23.37;17.50;;;0.90;99.90;;;;;;5094070;28;20443;-51
2022/01/16 07:39:06;;;;;;;18.93;15.27;;;0.80;99.90;;;;;;5094426;28;20458;-51
2022/01/16 07:41:33;;;;;;;26.37;18.40;;;0.90;99.90;;;;;;5094160;28;20467;-51
2022/01/16 07:44:02;;;;;;;28.97;17.80;;;1.00;99.90;;;;;;5093942;28;20451;-51
2022/01/16 07:46:29;;;;;;;28.63;18.93;;;0.80;99.90;;;;;;5094089;28;20448;-51
2022/01/16 07:48:57;;;;;;;23.50;16.10;;;0.70;99.90;;;;;;5094112;28;20446;-51
2022/01/16 07:51:25;;;;;;;19.10;15.37;;;0.60;99.90;;;;;;5093901;28;20803;-51
2022/01/16 07:53:53;;;;;;;22.97;15.53;;;0.60;99.90;;;;;;5093949;28;20930;-51
2022/01/16 07:56:20;;;;;;;24.40;17.70;;;0.60;99.90;;;;;;5093744;28;20934;-51
2022/01/16 07:58:47;;;;;;;24.53;15.70;;;0.60;99.90;;;;;;5093800;28;20432;-51
2022/01/16 08:01:15;;;;;;;25.07;16.40;;;0.50;99.90;;;;;;5093945;28;20483;-51
2022/01/16 08:03:43;;;;;;;27.53;19.00;;;0.50;99.90;;;;;;5093619;28;20949;-51
2022/01/16 08:06:10;;;;;;;22.00;15.47;;;0.50;99.90;;;;;;5093481;28;20458;-51
2022/01/16 08:08:38;;;;;;;23.40;17.23;;;0.30;99.90;;;;;;5093315;28;20479;-51
2022/01/16 08:11:08;;;;;;;24.77;16.93;;;0.20;99.90;;;;;;5093808;28;20460;-51
2022/01/16 08:13:35;;;;;;;23.40;15.93;;;0.20;99.90;;;;;;5093472;28;20504;-51
2022/01/16 08:16:04;;;;;;;26.67;19.27;;;0.20;99.90;;;;;;5093310;28;20448;-51
2022/01/16 08:18:33;;;;;;;30.50;17.53;;;0.40;99.90;;;;;;5093678;28;20767;-51
2022/01/16 08:21:00;;;;;;;29.30;18.20;;;0.50;99.90;;;;;;5093131;28;20484;-51
2022/01/16 08:23:27;;;;;;;25.67;18.40;;;0.50;99.90;;;;;;5093558;28;20534;-51
2022/01/16 08:25:55;;;;;;;25.40;18.90;;;0.50;99.90;;;;;;5093668;28;20776;-51
2022/01/16 08:28:22;;;;;;;23.77;16.67;;;0.40;99.90;;;;;;5093499;28;20447;-51
2022/01/16 08:30:49;;;;;;;25.97;18.53;;;0.80;99.90;;;;;;5093312;28;20470;-51
2022/01/16 08:33:16;;;;;;;28.43;18.50;;;0.80;99.90;;;;;;5093514;28;20447;-51
2022/01/16 08:35:45;;;;;;;25.43;19.63;;;0.60;99.90;;;;;;5092917;28;20451;-51
2022/01/16 08:38:12;;;;;;;32.43;19.27;;;0.70;99.90;;;;;;5092747;28;20463;-51
2022/01/16 08:40:39;;;;;;;25.30;17.23;;;0.60;99.90;;;;;;5093137;28;20483;-51
2022/01/16 08:43:08;;;;;;;28.57;19.90;;;0.40;99.90;;;;;;5092840;28;20455;-51
2022/01/16 08:45:37;;;;;;;25.87;18.57;;;0.30;99.90;;;;;;5093090;28;20456;-51
2022/01/16 08:48:05;;;;;;;29.03;20.87;;;0.60;99.90;;;;;;5092942;28;20463;-51
2022/01/16 08:50:33;;;;;;;21.63;15.43;;;1.00;99.90;;;;;;5092774;28;20966;-51
2022/01/16 08:53:03;;;;;;;28.67;18.60;;;1.00;99.90;;;;;;5092978;28;20451;-51
2022/01/16 08:55:30;;;;;;;26.03;18.20;;;1.30;99.90;;;;;;5093123;28;20444;-51
2022/01/16 08:57:59;;;;;;;25.93;17.00;;;1.30;99.90;;;;;;5093154;28;20443;-51
2022/01/16 09:00:26;;;;;;;28.53;17.70;;;1.00;99.90;;;;;;5092607;28;20985;-53
2022/01/16 09:02:54;;;;;;;22.53;16.73;;;0.90;99.90;;;;;;5093131;28;20450;-51
2022/01/16 09:05:21;;;;;;;26.57;18.57;;;0.90;99.90;;;;;;5092888;28;20450;-51
2022/01/16 09:07:48;;;;;;;26.50;19.90;;;0.90;99.90;;;;;;5092625;28;20447;-50
2022/01/16 09:10:17;;;;;;;21.90;17.63;;;1.00;99.90;;;;;;5092288;28;20480;-51
2022/01/16 09:12:44;;;;;;;21.90;17.23;;;1.10;99.90;;;;;;5092711;28;20454;-50
2022/01/16 09:15:12;;;;;;;25.77;19.10;;;1.10;99.90;;;;;;5092625;28;20454;-51
2022/01/16 09:17:40;;;;;;;23.90;18.30;;;1.20;99.90;;;;;;5092880;28;20500;-51
2022/01/16 09:20:09;;;;;;;28.43;18.10;;;1.20;99.90;;;;;;5092843;28;20488;-51
2022/01/16 09:22:39;;;;;;;26.13;17.73;;;1.20;99.90;;;;;;5093006;28;20825;-51
2022/01/16 09:25:07;;;;;;;22.97;17.07;;;1.20;99.90;;;;;;5092815;28;20451;-51
2022/01/16 09:27:36;;;;;;;19.27;15.93;;;1.30;99.90;;;;;;5092617;28;20458;-51
2022/01/16 09:30:04;;;;;;;23.97;17.80;;;1.10;99.90;;;;;;5093053;28;20517;-51
2022/01/16 09:32:33;;;;;;;23.80;16.50;;;1.40;99.90;;;;;;5092815;28;20549;-51
2022/01/16 09:35:01;;;;;;;23.23;16.97;;;1.60;99.90;;;;;;5092447;28;20457;-51
2022/01/16 09:37:28;;;;;;;21.13;15.87;;;1.80;99.90;;;;;;5092550;28;20450;-51
2022/01/16 09:39:58;;;;;;;21.80;15.50;;;1.70;99.90;;;;;;5092836;28;20490;-51
2022/01/16 09:42:25;;;;;;;20.60;18.20;;;1.80;99.90;;;;;;5092661;28;20498;-51
2022/01/16 09:44:54;;;;;;;19.13;15.77;;;2.00;99.90;;;;;;5092628;28;20439;-51
2022/01/16 09:47:21;;;;;;;21.27;16.13;;;1.90;99.90;;;;;;5092806;28;20447;-51
2022/01/16 09:49:49;;;;;;;17.93;15.67;;;2.30;99.90;;;;;;5092378;28;20438;-51
2022/01/16 09:52:16;;;;;;;24.97;16.60;;;2.40;99.90;;;;;;5092524;28;20475;-51
2022/01/16 09:54:44;;;;;;;27.53;16.10;;;2.30;99.90;;;;;;5092745;28;20534;-51
2022/01/16 09:57:12;;;;;;;19.10;15.83;;;2.30;99.90;;;;;;5095970;28;20447;-51
2022/01/16 09:59:39;;;;;;;22.73;16.77;;;2.30;99.90;;;;;;5095816;28;20508;-51
2022/01/16 10:02:08;;;;;;;22.53;17.23;;;2.30;99.90;;;;;;5096448;28;20794;-51
2022/01/16 10:04:36;;;;;;;24.03;18.07;;;2.20;99.90;;;;;;5095732;28;20765;-50
2022/01/16 10:07:06;;;;;;;25.43;18.10;;;2.20;99.90;;;;;;5095955;28;20475;-51
2022/01/16 10:09:35;;;;;;;28.83;19.63;;;2.40;99.90;;;;;;5095799;28;20475;-51
2022/01/16 10:12:13;;;;;;;21.50;16.80;;;2.30;99.90;;;;;;5095892;28;20463;-51
2022/01/16 10:14:47;;;;;;;24.53;18.30;;;2.20;99.90;;;;;;5095972;28;20428;-51
2022/01/16 10:17:18;;;;;;;21.23;16.33;;;2.10;99.90;;;;;;5096102;28;20424;-51
2022/01/16 10:19:47;;;;;;;27.53;18.03;;;2.30;99.90;;;;;;5095593;28;20430;-51
2022/01/16 10:22:15;;;;;;;22.20;17.00;;;2.30;99.90;;;;;;5095740;28;20459;-51
2022/01/16 10:24:43;;;;;;;22.90;17.57;;;2.10;99.90;;;;;;5095568;28;20447;-51
2022/01/16 10:27:17;;;;;;;22.60;18.30;;;2.20;99.90;;;;;;5095334;28;20628;-51
2022/01/16 10:29:46;;;;;;;25.67;17.17;;;2.50;99.90;;;;;;5095522;28;20428;-51
2022/01/16 10:32:17;;;;;;;27.33;16.53;;;2.60;99.90;;;;;;5095669;28;20538;-51
2022/01/16 10:34:46;;;;;;;23.20;18.10;;;2.80;99.90;;;;;;5095305;28;21335;-51
2022/01/16 10:37:27;;;;;;;26.23;19.43;;;3.00;99.90;;;;;;5095451;28;20808;-52
2022/01/16 10:40:02;;;;;;;24.20;17.70;;;3.00;99.90;;;;;;5095550;28;20914;-51
2022/01/16 10:42:31;;;;;;;25.47;18.80;;;3.10;99.90;;;;;;5095207;28;20541;-51
2022/01/16 10:45:01;;;;;;;26.13;18.10;;;3.20;99.90;;;;;;5095035;28;20930;-51
2022/01/16 10:47:41;;;;;;;23.77;18.37;;;3.40;99.90;;;;;;5095439;28;20786;-51
2022/01/16 10:50:15;;;;;;;25.20;17.80;;;3.50;99.90;;;;;;5095070;28;20898;-51
2022/01/16 10:52:55;;;;;;;23.50;16.43;;;3.60;99.90;;;;;;5095594;28;20474;-51
2022/01/16 10:55:33;;;;;;;23.00;16.47;;;3.80;99.90;;;;;;5095210;28;20480;-51
2022/01/16 10:58:03;;;;;;;23.93;17.20;;;4.00;99.90;;;;;;5095120;28;20423;-51
2022/01/16 11:00:30;;;;;;;23.20;18.83;;;4.00;99.90;;;;;;5094716;28;20552;-51
2022/01/16 11:03:02;;;;;;;27.27;20.23;;;4.00;99.90;;;;;;5094764;28;20451;-51
2022/01/16 11:05:33;;;;;;;23.90;17.23;;;3.80;99.90;;;;;;5095089;28;20428;-51
2022/01/16 11:08:02;;;;;;;25.50;17.30;;;3.70;99.90;;;;;;5094848;28;20438;-51
2022/01/16 11:10:31;;;;;;;26.10;19.63;;;3.90;99.90;;;;;;5094431;28;20857;-51
2022/01/16 11:13:01;;;;;;;25.37;19.20;;;3.90;99.90;;;;;;5094452;28;20949;-51
2022/01/16 11:15:29;;;;;;;22.80;18.10;;;4.10;99.90;;;;;;5095002;28;20451;-50
2022/01/16 11:17:56;;;;;;;22.90;19.30;;;4.20;99.90;;;;;;5094677;28;20562;-51
2022/01/16 11:20:33;;;;;;;23.73;18.17;;;4.20;99.90;;;;;;5094391;28;20471;-51
2022/01/16 11:23:14;;;;;;;26.83;17.43;;;4.20;99.90;;;;;;5094438;28;20881;-51
2022/01/16 11:25:42;;;;;;;32.27;21.27;;;4.10;99.90;;;;;;5094498;28;20485;-51
2022/01/16 11:28:15;;;;;;;24.03;18.70;;;4.20;99.90;;;;;;5094843;28;20448;-51
2022/01/16 11:30:47;;;;;;;25.83;20.17;;;4.30;99.90;;;;;;5094334;28;20460;-50
2022/01/16 11:33:14;;;;;;;26.53;20.13;;;4.60;99.90;;;;;;5094443;28;20788;-50
2022/01/16 11:35:48;;;;;;;24.57;18.67;;;4.70;99.90;;;;;;5094172;28;20555;-50
2022/01/16 11:38:19;;;;;;;25.87;19.23;;;4.20;99.90;;;;;;5094046;28;20442;-50
2022/01/16 11:40:47;;;;;;;27.93;20.40;;;3.90;99.90;;;;;;5093908;28;20522;-52
2022/01/16 11:43:20;;;;;;;31.77;20.77;;;3.80;99.90;;;;;;5093976;28;20926;-52
2022/01/16 11:46:07;;;;;;;29.37;22.53;;;3.90;99.90;;;;;;5094103;28;20952;-50
2022/01/16 11:48:49;;;;;;;29.90;21.20;;;4.20;99.90;;;;;;5094225;28;20820;-49
2022/01/16 11:51:52;;;;;;;26.10;19.00;;;4.30;99.90;;;;;;5094228;28;20463;-50
2022/01/16 11:54:25;;;;;;;26.10;18.70;;;4.10;99.90;;;;;;5093774;28;20420;-50
2022/01/16 11:57:01;;;;;;;30.60;20.00;;;4.20;99.90;;;;;;5093774;28;20500;-50
2022/01/16 11:59:36;;;;;;;33.33;20.60;;;4.10;99.90;;;;;;5094004;28;20432;-50
2022/01/16 12:02:04;;;;;;;32.93;21.20;;;4.20;99.90;;;;;;5093717;28;20486;-50
2022/01/16 12:04:57;;;;;;;31.53;19.57;;;4.10;99.90;;;;;;5093914;28;20526;-50
2022/01/16 12:07:47;;;;;;;36.10;22.20;;;3.80;99.90;;;;;;5093756;28;20449;-50
2022/01/16 12:10:29;;;;;;;32.20;20.37;;;3.80;99.90;;;;;;5093156;28;20483;-52
2022/01/16 12:12:56;;;;;;;33.97;21.20;;;3.80;99.90;;;;;;5093311;28;20447;-50
2022/01/16 12:15:23;;;;;;;38.53;20.30;;;3.70;99.90;;;;;;5093604;28;20455;-50
2022/01/16 12:17:51;;;;;;;33.80;20.57;;;3.70;99.90;;;;;;5093125;28;20478;-50
2022/01/16 12:20:25;;;;;;;31.83;18.87;;;4.20;99.90;;;;;;5092855;28;20455;-50
2022/01/16 12:22:56;;;;;;;32.17;18.53;;;4.40;99.90;;;;;;5093685;28;20434;-53
2022/01/16 12:25:24;;;;;;;29.17;17.37;;;4.20;99.90;;;;;;5093237;28;20951;-50
2022/01/16 12:27:53;;;;;;;27.47;16.60;;;4.00;99.90;;;;;;5093243;28;21012;-51
2022/01/16 12:30:50;;;;;;;32.37;19.00;;;3.90;99.90;;;;;;5093343;28;20453;-51
2022/01/16 12:33:26;;;;;;;29.93;19.00;;;4.10;99.90;;;;;;5093581;28;20424;-51
2022/01/16 12:36:08;;;;;;;23.90;14.87;;;4.30;99.90;;;;;;5092889;28;20831;-51
2022/01/16 12:38:48;;;;;;;23.17;15.10;;;4.30;99.90;;;;;;5093019;28;20508;-51
2022/01/16 12:41:18;;;;;;;24.10;15.63;;;4.30;99.90;;;;;;5093081;28;20490;-51
2022/01/16 12:43:53;;;;;;;17.17;13.13;;;4.40;99.90;;;;;;5092835;28;20458;-51
2022/01/16 12:46:23;;;;;;;17.77;12.20;;;4.30;99.90;;;;;;5093366;28;20442;-51
2022/01/16 12:48:51;;;;;;;16.97;11.23;;;4.30;99.90;;;;;;5093194;28;20895;-51
2022/01/16 12:51:20;;;;;;;18.17;12.47;;;4.20;99.90;;;;;;5092872;28;20520;-51
2022/01/16 12:53:51;;;;;;;20.17;12.00;;;4.20;99.90;;;;;;5093122;28;20447;-51
2022/01/16 12:56:24;;;;;;;17.50;12.50;;;4.20;99.90;;;;;;5093239;28;20511;-51
2022/01/16 12:58:53;;;;;;;20.67;12.37;;;4.40;99.90;;;;;;5092735;28;20451;-51
2022/01/16 13:01:21;;;;;;;15.70;11.43;;;4.70;99.90;;;;;;5092506;28;20973;-51
2022/01/16 13:03:48;;;;;;;19.37;11.40;;;4.60;99.90;;;;;;5092660;28;20444;-51
2022/01/16 13:06:18;;;;;;;16.20;11.03;;;4.40;99.90;;;;;;5092696;28;20473;-51
2022/01/16 13:08:59;;;;;;;16.90;12.63;;;4.40;99.90;;;;;;5092327;28;20490;-51
2022/01/16 13:11:28;;;;;;;19.37;12.07;;;4.50;99.90;;;;;;5092430;28;20463;-51
2022/01/16 13:13:56;;;;;;;14.37;11.07;;;4.50;99.90;;;;;;5092466;28;20447;-51
2022/01/16 13:16:25;;;;;;;15.07;11.70;;;4.50;99.90;;;;;;5092671;28;20447;-51
2022/01/16 13:19:04;;;;;;;18.10;12.07;;;4.50;99.90;;;;;;5092443;28;20934;-51
2022/01/16 13:21:41;;;;;;;17.77;11.50;;;4.30;99.90;;;;;;5092410;28;20577;-51
2022/01/16 13:24:10;;;;;;;15.77;10.43;;;4.30;99.90;;;;;;5092595;28;20431;-51